Time;durP1;ratioP1;P1;durP2;ratioP2;P2;SDS_P1;SDS_P2;PMS_P1;PMS_P2;Temp;Humidity;BMP_temperature;BMP_pressure;BME280_temperature;BME280_humidity;BME280_pressure;Samples;Min_cycle;Max_cycle;Signal;HPM_P1;HPM_P2
2021/12/25 00:00:57;;;;;;;36.38;18.38;;;;;;;;;;7798864;22;20451;-66
2021/12/25 00:04:00;;;;;;;20.70;11.80;;;;;;;;;;7786869;22;20020;-67
2021/12/25 00:07:03;;;;;;;19.95;11.18;;;;;;;;;;7786591;22;20019;-66
2021/12/25 00:10:08;;;;;;;17.40;10.48;;;;;;;;;;7784553;22;20434;-66
2021/12/25 00:13:11;;;;;;;20.27;10.38;;;;;;;;;;7797874;22;20019;-66
2021/12/25 00:16:14;;;;;;;18.48;10.40;;;;;;;;;;7786712;22;20020;-66
2021/12/25 00:19:17;;;;;;;18.30;9.20;;;;;;;;;;7785114;22;20020;-66
2021/12/25 00:22:22;;;;;;;16.40;9.10;;;;;;;;;;7797495;22;20046;-66
2021/12/25 00:25:27;;;;;;;16.85;9.18;;;;;;;;;;7785332;22;20026;-66
2021/12/25 00:28:50;;;;;;;16.15;8.68;;;;;;;;;;7784699;22;20011;-66
2021/12/25 00:32:10;;;;;;;20.33;8.88;;;;;;;;;;7798802;22;20077;-66
2021/12/25 00:35:14;;;;;;;16.38;8.18;;;;;;;;;;7790127;22;20020;-66
2021/12/25 00:38:17;;;;;;;18.63;8.13;;;;;;;;;;7785171;22;20537;-65
2021/12/25 00:41:22;;;;;;;16.65;8.73;;;;;;;;;;7784573;22;20035;-66
2021/12/25 00:44:25;;;;;;;15.02;8.52;;;;;;;;;;7796739;22;20022;-66
2021/12/25 00:47:31;;;;;;;14.57;7.55;;;;;;;;;;7799392;22;20016;-66
2021/12/25 00:50:34;;;;;;;16.48;8.55;;;;;;;;;;7784543;22;20359;-65
2021/12/25 00:53:37;;;;;;;15.98;7.57;;;;;;;;;;7785730;22;20030;-66
2021/12/25 00:56:41;;;;;;;17.50;8.75;;;;;;;;;;7786203;22;20019;-66
2021/12/25 00:59:44;;;;;;;16.70;8.52;;;;;;;;;;7784548;22;20073;-65
2021/12/25 01:02:47;;;;;;;15.52;8.55;;;;;;;;;;7784324;22;20015;-66
2021/12/25 01:05:53;;;;;;;16.40;8.63;;;;;;;;;;7784117;22;20029;-66
2021/12/25 01:08:58;;;;;;;16.48;8.48;;;;;;;;;;7793982;22;20069;-66
2021/12/25 01:12:04;;;;;;;15.60;8.10;;;;;;;;;;7781355;22;20015;-65
2021/12/25 01:15:09;;;;;;;14.85;8.07;;;;;;;;;;7795150;22;20421;-65
2021/12/25 01:25:34;;;;;;;13.57;8.15;;;;;;;;;;7799289;22;20015;-65
2021/12/25 01:32:19;;;;;;;13.48;7.47;;;;;;;;;;7796238;22;20019;-66
2021/12/25 01:39:18;;;;;;;14.63;8.05;;;;;;;;;;6392949;27;20815;-66
2021/12/25 01:50:01;;;;;;;15.80;8.20;;;;;;;;;;6393294;27;20050;-65
2021/12/25 01:53:04;;;;;;;13.80;8.10;;;;;;;;;;6392110;27;20078;-65
2021/12/25 01:56:08;;;;;;;14.20;7.95;;;;;;;;;;6372804;27;20053;-65
2021/12/25 01:59:11;;;;;;;13.23;7.90;;;;;;;;;;6372017;27;20035;-65
2021/12/25 02:02:17;;;;;;;12.65;8.32;;;;;;;;;;6371690;27;20046;-65
2021/12/25 02:05:20;;;;;;;14.55;7.70;;;;;;;;;;6405236;27;20038;-65
2021/12/25 02:08:23;;;;;;;14.50;7.60;;;;;;;;;;6398552;27;20053;-64
2021/12/25 02:11:29;;;;;;;14.10;7.85;;;;;;;;;;6399257;27;20191;-65
2021/12/25 02:14:32;;;;;;;14.48;7.43;;;;;;;;;;6398950;27;20049;-65
2021/12/25 02:17:52;;;;;;;12.05;6.97;;;;;;;;;;6399740;27;20069;-64
2021/12/25 02:21:18;;;;;;;16.60;7.82;;;;;;;;;;6399821;27;20050;-65
2021/12/25 02:24:21;;;;;;;12.48;6.90;;;;;;;;;;6399413;27;20043;-65
2021/12/25 02:27:27;;;;;;;13.35;7.18;;;;;;;;;;6398822;27;20488;-65
2021/12/25 02:30:30;;;;;;;15.00;7.25;;;;;;;;;;6399567;27;20046;-66
2021/12/25 02:33:36;;;;;;;;;;;;;;;;;;6400066;27;20090;-66
2021/12/25 02:36:40;;;;;;;11.82;6.55;;;;;;;;;;6416551;27;20273;-67
2021/12/25 02:39:44;;;;;;;12.40;7.47;;;;;;;;;;6399210;27;20054;-67
2021/12/25 02:42:47;;;;;;;13.52;7.25;;;;;;;;;;6399171;27;20218;-67
2021/12/25 02:45:50;;;;;;;11.57;6.57;;;;;;;;;;6398714;27;20065;-66
2021/12/25 02:48:56;;;;;;;11.95;7.20;;;;;;;;;;6409285;27;20070;-67
2021/12/25 02:52:01;;;;;;;10.88;6.55;;;;;;;;;;6381964;27;20051;-66
2021/12/25 02:55:03;;;;;;;13.45;6.95;;;;;;;;;;6400338;27;20476;-67
2021/12/25 02:58:07;;;;;;;12.77;6.47;;;;;;;;;;6380425;27;20472;-66
2021/12/25 03:01:12;;;;;;;;;;;;;;;;;;6382278;27;20053;-67
2021/12/25 03:04:15;;;;;;;14.75;6.55;;;;;;;;;;6381500;27;20288;-67
2021/12/25 03:07:20;;;;;;;11.63;6.18;;;;;;;;;;6380851;27;20042;-67
2021/12/25 03:10:27;;;;;;;11.48;6.30;;;;;;;;;;6380951;27;20053;-67
2021/12/25 03:13:36;;;;;;;13.35;6.65;;;;;;;;;;6381404;27;20115;-66
2021/12/25 03:16:40;;;;;;;9.68;6.13;;;;;;;;;;6381394;27;20400;-67
2021/12/25 03:19:43;;;;;;;11.05;6.10;;;;;;;;;;6379668;27;20139;-66
2021/12/25 03:22:48;;;;;;;11.75;6.55;;;;;;;;;;6380099;27;20119;-66
2021/12/25 03:25:57;;;;;;;11.93;6.55;;;;;;;;;;6380859;27;20103;-66
2021/12/25 03:29:03;;;;;;;12.95;6.57;;;;;;;;;;6379421;27;20050;-66
2021/12/25 03:32:06;;;;;;;;;;;;;;;;;;6380480;27;20440;-66
2021/12/25 03:35:10;;;;;;;11.77;6.72;;;;;;;;;;6380673;27;20326;-66
2021/12/25 03:38:15;;;;;;;11.93;6.00;;;;;;;;;;6395316;27;20119;-66
2021/12/25 03:41:19;;;;;;;10.80;6.43;;;;;;;;;;6375508;27;20047;-67
2021/12/25 03:44:22;;;;;;;12.02;6.18;;;;;;;;;;6375497;27;20480;-66
2021/12/25 03:47:29;;;;;;;11.63;5.53;;;;;;;;;;6394817;27;20095;-66
2021/12/25 04:00:37;;;;;;;10.20;5.78;;;;;;;;;;6377458;27;20047;-65
2021/12/25 04:03:47;;;;;;;10.32;5.78;;;;;;;;;;6377979;27;20047;-65
2021/12/25 04:06:58;;;;;;;9.82;5.40;;;;;;;;;;6396110;27;20428;-65
2021/12/25 04:10:04;;;;;;;12.05;6.18;;;;;;;;;;6377788;27;20047;-65
2021/12/25 04:13:08;;;;;;;10.45;5.20;;;;;;;;;;6396798;27;20039;-65
2021/12/25 04:16:11;;;;;;;10.60;5.68;;;;;;;;;;6377460;27;20049;-65
2021/12/25 04:19:14;;;;;;;9.23;5.57;;;;;;;;;;6377521;27;20091;-65
2021/12/25 04:22:23;;;;;;;10.18;5.57;;;;;;;;;;6377842;27;20042;-65
2021/12/25 04:25:33;;;;;;;9.75;5.57;;;;;;;;;;6378037;27;20053;-66
2021/12/25 04:28:41;;;;;;;8.68;5.60;;;;;;;;;;6376997;27;20065;-65
2021/12/25 04:32:08;;;;;;;10.70;5.80;;;;;;;;;;6377474;27;20038;-66
2021/12/25 04:49:22;;;;;;;10.10;5.90;;;;;;;;;;6368710;27;20039;-65
2021/12/25 05:02:47;;;;;;;11.50;5.85;;;;;;;;;;6369105;27;20197;-66
2021/12/25 05:06:09;;;;;;;11.25;6.38;;;;;;;;;;6368117;27;20047;-66
2021/12/25 05:09:16;;;;;;;11.95;6.40;;;;;;;;;;6368425;27;20396;-65
2021/12/25 05:12:19;;;;;;;15.63;7.13;;;;;;;;;;6367460;27;20049;-66
2021/12/25 05:15:25;;;;;;;13.23;7.25;;;;;;;;;;6367598;27;20043;-65
2021/12/25 05:18:30;;;;;;;13.07;6.75;;;;;;;;;;6368507;27;20035;-66
2021/12/25 05:21:33;;;;;;;13.13;7.22;;;;;;;;;;6367906;27;20050;-65
2021/12/25 05:24:36;;;;;;;12.82;7.38;;;;;;;;;;6367662;27;20043;-65
2021/12/25 05:27:41;;;;;;;13.77;7.15;;;;;;;;;;6367927;27;20127;-65
2021/12/25 05:30:46;;;;;;;12.57;6.47;;;;;;;;;;6369392;27;20072;-65
2021/12/25 05:34:07;;;;;;;14.50;6.85;;;;;;;;;;6369171;27;20513;-66
2021/12/25 05:37:24;;;;;;;14.00;6.97;;;;;;;;;;6366980;28;20547;-65
2021/12/25 05:40:39;;;;;;;12.68;6.22;;;;;;;;;;6368892;28;20058;-66
2021/12/25 05:43:42;;;;;;;11.18;5.88;;;;;;;;;;6367881;28;20056;-66
2021/12/25 05:46:51;;;;;;;12.48;5.45;;;;;;;;;;6367256;28;20043;-66
2021/12/25 05:49:57;;;;;;;8.95;5.68;;;;;;;;;;6367266;28;20050;-66
2021/12/25 05:53:19;;;;;;;10.82;5.03;;;;;;;;;;6368979;28;20039;-66
2021/12/25 05:56:51;;;;;;;9.77;5.28;;;;;;;;;;6359434;28;20115;-67
2021/12/25 06:00:14;;;;;;;11.43;5.55;;;;;;;;;;6336592;27;20533;-66
2021/12/25 06:03:18;;;;;;;11.15;6.10;;;;;;;;;;6368183;28;20489;-66
2021/12/25 06:06:22;;;;;;;12.30;6.47;;;;;;;;;;6367591;28;20093;-66
2021/12/25 06:09:25;;;;;;;12.57;6.38;;;;;;;;;;6367438;28;20047;-66
2021/12/25 06:12:28;;;;;;;12.50;6.07;;;;;;;;;;6366953;28;20047;-66
2021/12/25 06:15:32;;;;;;;11.25;6.10;;;;;;;;;;6367091;28;20054;-66
2021/12/25 06:18:59;;;;;;;11.23;5.55;;;;;;;;;;6362813;28;20070;-66
2021/12/25 06:22:10;;;;;;;13.82;6.18;;;;;;;;;;6367293;28;20492;-66
2021/12/25 06:25:31;;;;;;;13.05;6.00;;;;;;;;;;6372235;27;20051;-66
2021/12/25 06:28:57;;;;;;;16.08;6.38;;;;;;;;;;6371706;27;20043;-66
2021/12/25 06:32:05;;;;;;;12.68;5.93;;;;;;;;;;6373474;27;20408;-66
2021/12/25 06:35:28;;;;;;;14.30;6.22;;;;;;;;;;6373195;27;20408;-66
2021/12/25 06:38:48;;;;;;;12.60;6.57;;;;;;;;;;6371131;27;20047;-66
2021/12/25 06:42:20;;;;;;;14.98;6.30;;;;;;;;;;6360245;27;20043;-66
2021/12/25 06:45:23;;;;;;;18.35;6.55;;;;;;;;;;6372009;27;20115;-66
2021/12/25 06:48:28;;;;;;;10.18;5.72;;;;;;;;;;6371727;27;20043;-66
2021/12/25 06:51:47;;;;;;;10.35;6.00;;;;;;;;;;6372417;27;20050;-66
2021/12/25 06:55:09;;;;;;;11.80;6.18;;;;;;;;;;6372133;27;20039;-66
2021/12/25 06:58:25;;;;;;;11.50;5.78;;;;;;;;;;6371228;27;20070;-67
2021/12/25 07:01:28;;;;;;;12.45;6.28;;;;;;;;;;6371393;27;20401;-65
2021/12/25 07:04:31;;;;;;;10.40;6.18;;;;;;;;;;6370486;27;20519;-66
2021/12/25 07:07:54;;;;;;;12.70;6.30;;;;;;;;;;6371757;27;20054;-66
2021/12/25 07:11:18;;;;;;;11.75;6.07;;;;;;;;;;6371919;27;20487;-65
2021/12/25 07:14:30;;;;;;;10.85;6.18;;;;;;;;;;6371058;27;20481;-66
2021/12/25 07:17:52;;;;;;;9.65;5.70;;;;;;;;;;6371744;27;20055;-66
2021/12/25 07:21:27;;;;;;;11.85;5.88;;;;;;;;;;6347655;27;20454;-66
2021/12/25 07:24:41;;;;;;;12.02;6.55;;;;;;;;;;6370366;27;20134;-67
2021/12/25 07:28:17;;;;;;;12.50;6.90;;;;;;;;;;6348382;27;20455;-66
2021/12/25 07:31:22;;;;;;;;;;;;;;;;;;6372173;27;20477;-66
2021/12/25 07:34:25;;;;;;;12.70;6.18;;;;;;;;;;6370924;27;19996;-66
2021/12/25 07:37:28;;;;;;;10.40;6.03;;;;;;;;;;6370065;27;20070;-66
2021/12/25 07:40:35;;;;;;;11.13;6.57;;;;;;;;;;6371619;27;20046;-66
2021/12/25 07:43:38;;;;;;;8.07;4.95;;;;;;;;;;6369703;27;20485;-67
2021/12/25 07:46:57;;;;;;;9.05;5.25;;;;;;;;;;6369390;27;20234;-65
2021/12/25 07:50:00;;;;;;;11.70;6.28;;;;;;;;;;6370171;27;20135;-66
2021/12/25 07:53:07;;;;;;;14.13;6.53;;;;;;;;;;6369950;27;20128;-66
2021/12/25 07:56:11;;;;;;;14.48;7.03;;;;;;;;;;6369212;27;20057;-66
2021/12/25 07:59:16;;;;;;;15.23;7.88;;;;;;;;;;6370847;27;20042;-67
2021/12/25 08:02:19;;;;;;;13.33;7.10;;;;;;;;;;6371223;27;20039;-67
2021/12/25 08:05:23;;;;;;;15.57;8.02;;;;;;;;;;6369139;27;20039;-67
2021/12/25 08:08:26;;;;;;;12.32;6.75;;;;;;;;;;6370716;27;20164;-67
2021/12/25 08:11:30;;;;;;;11.52;6.88;;;;;;;;;;6370795;27;20092;-67
2021/12/25 08:14:33;;;;;;;12.23;7.18;;;;;;;;;;6370543;27;20035;-66
2021/12/25 08:17:37;;;;;;;14.35;7.95;;;;;;;;;;6368573;27;20047;-67
2021/12/25 08:21:04;;;;;;;11.60;7.25;;;;;;;;;;6337916;27;20053;-67
2021/12/25 08:24:25;;;;;;;10.23;6.03;;;;;;;;;;6370657;27;20121;-66
2021/12/25 08:27:48;;;;;;;10.70;5.88;;;;;;;;;;6370542;27;20126;-66
2021/12/25 08:30:51;;;;;;;10.18;6.43;;;;;;;;;;6370000;27;20050;-67
2021/12/25 08:34:13;;;;;;;11.32;6.50;;;;;;;;;;6369664;27;20043;-66
2021/12/25 08:37:35;;;;;;;11.68;6.60;;;;;;;;;;6382045;27;20412;-66
2021/12/25 08:40:41;;;;;;;11.85;7.40;;;;;;;;;;6377240;27;20050;-65
2021/12/25 08:43:48;;;;;;;10.88;6.80;;;;;;;;;;6376485;27;20042;-65
2021/12/25 08:46:56;;;;;;;11.95;6.55;;;;;;;;;;6376413;27;20039;-66
2021/12/25 08:49:59;;;;;;;12.15;7.60;;;;;;;;;;6395671;27;20051;-66
2021/12/25 08:53:02;;;;;;;14.85;8.25;;;;;;;;;;6396879;27;20497;-65
2021/12/25 08:56:08;;;;;;;14.43;8.02;;;;;;;;;;6376448;27;20038;-66
2021/12/25 08:59:14;;;;;;;12.30;7.18;;;;;;;;;;6395572;27;20051;-67
2021/12/25 09:02:18;;;;;;;13.05;8.00;;;;;;;;;;6395178;27;20042;-66
2021/12/25 09:05:21;;;;;;;10.95;7.22;;;;;;;;;;6376137;27;20053;-66
2021/12/25 09:08:25;;;;;;;15.48;8.77;;;;;;;;;;6376067;27;20066;-66
2021/12/25 09:11:27;;;;;;;16.40;9.85;;;;;;;;;;6395558;27;20049;-65
2021/12/25 09:14:32;;;;;;;17.27;9.20;;;;;;;;;;6394863;27;20039;-67
2021/12/25 09:17:35;;;;;;;16.27;10.10;;;;;;;;;;6376149;27;20115;-66
2021/12/25 09:20:38;;;;;;;17.30;9.40;;;;;;;;;;6376733;27;20046;-67
2021/12/25 09:23:41;;;;;;;14.38;9.65;;;;;;;;;;6394726;27;20042;-66
2021/12/25 09:26:44;;;;;;;18.25;10.80;;;;;;;;;;6394270;27;20042;-66
2021/12/25 09:29:49;;;;;;;17.95;11.32;;;;;;;;;;6376205;27;20042;-65
2021/12/25 09:32:54;;;;;;;14.50;9.50;;;;;;;;;;6376341;27;20039;-67
2021/12/25 09:35:57;;;;;;;17.73;10.30;;;;;;;;;;6394054;27;20038;-66
2021/12/25 09:39:00;;;;;;;15.63;8.75;;;;;;;;;;6375397;27;20055;-66
2021/12/25 09:42:08;;;;;;;16.55;8.88;;;;;;;;;;6376121;27;20031;-67
2021/12/25 09:45:15;;;;;;;16.85;9.18;;;;;;;;;;6375746;27;20047;-66
2021/12/25 09:48:19;;;;;;;13.77;8.60;;;;;;;;;;6394340;27;20039;-66
2021/12/25 09:51:22;;;;;;;14.70;9.02;;;;;;;;;;6394525;27;20047;-66
2021/12/25 09:54:28;;;;;;;14.82;9.30;;;;;;;;;;6376082;27;20043;-66
2021/12/25 09:57:31;;;;;;;14.60;8.32;;;;;;;;;;6375856;27;20047;-66
2021/12/25 10:00:36;;;;;;;17.38;10.10;;;;;;;;;;6379604;27;20043;-66
2021/12/25 10:03:57;;;;;;;15.23;9.85;;;;;;;;;;6381111;27;20046;-66
2021/12/25 10:07:11;;;;;;;11.65;7.18;;;;;;;;;;6380667;27;20074;-66
2021/12/25 10:10:16;;;;;;;13.25;7.97;;;;;;;;;;6380403;27;20047;-65
2021/12/25 10:13:21;;;;;;;12.02;8.02;;;;;;;;;;6399076;27;20043;-66
2021/12/25 10:16:26;;;;;;;12.75;7.78;;;;;;;;;;6380966;27;20050;-65
2021/12/25 10:19:31;;;;;;;11.98;8.00;;;;;;;;;;6380465;27;20047;-66
2021/12/25 10:22:54;;;;;;;14.48;8.48;;;;;;;;;;6379936;27;20122;-66
2021/12/25 10:25:58;;;;;;;14.80;8.27;;;;;;;;;;6380537;27;20087;-66
2021/12/25 10:29:14;;;;;;;16.63;8.90;;;;;;;;;;6380431;27;20046;-66
2021/12/25 10:32:20;;;;;;;12.32;8.40;;;;;;;;;;6380025;27;20042;-65
2021/12/25 10:35:25;;;;;;;15.45;8.68;;;;;;;;;;6398567;27;20046;-64
2021/12/25 10:38:29;;;;;;;14.05;8.00;;;;;;;;;;6381378;27;20484;-64
2021/12/25 10:41:35;;;;;;;10.40;6.75;;;;;;;;;;6399552;27;20056;-65
2021/12/25 10:44:39;;;;;;;11.35;6.30;;;;;;;;;;6381094;27;20053;-66
2021/12/25 10:47:44;;;;;;;11.55;4.45;;;;;;;;;;6399534;27;20659;-67
2021/12/25 10:50:48;;;;;;;8.57;4.83;;;;;;;;;;6399728;27;20415;-66
2021/12/25 10:53:52;;;;;;;8.07;4.30;;;;;;;;;;6380560;27;20154;-66
2021/12/25 10:56:56;;;;;;;9.10;4.10;;;;;;;;;;6398985;27;20039;-67
2021/12/25 10:59:59;;;;;;;5.85;4.18;;;;;;;;;;6399956;27;20054;-66
2021/12/25 11:03:05;;;;;;;5.18;3.67;;;;;;;;;;6379640;27;20527;-65
2021/12/25 11:06:13;;;;;;;6.30;3.28;;;;;;;;;;6397485;27;20053;-66
2021/12/25 11:09:24;;;;;;;40.13;22.30;;;;;;;;;;6379155;27;20046;-66
2021/12/25 11:12:29;;;;;;;12.45;6.45;;;;;;;;;;6379232;27;20042;-67
2021/12/25 11:15:34;;;;;;;8.50;4.30;;;;;;;;;;6376576;27;20042;-65
2021/12/25 11:18:53;;;;;;;7.15;3.42;;;;;;;;;;6360276;27;20043;-65
2021/12/25 11:21:57;;;;;;;5.25;3.65;;;;;;;;;;6353496;27;20126;-67
2021/12/25 11:25:00;;;;;;;5.00;3.40;;;;;;;;;;6353191;27;20043;-66
2021/12/25 11:28:09;;;;;;;5.28;3.53;;;;;;;;;;6371165;27;20047;-67
2021/12/25 11:31:12;;;;;;;10.15;5.53;;;;;;;;;;6352810;27;20051;-65
2021/12/25 11:34:16;;;;;;;5.55;3.63;;;;;;;;;;6350875;27;20043;-68
2021/12/25 11:37:20;;;;;;;5.43;2.93;;;;;;;;;;6351333;27;20043;-65
2021/12/25 11:40:24;;;;;;;4.70;3.40;;;;;;;;;;6352203;27;20417;-63
2021/12/25 11:43:34;;;;;;;4.30;2.97;;;;;;;;;;6353518;27;20095;-65
2021/12/25 11:46:39;;;;;;;4.60;2.72;;;;;;;;;;6371250;27;20039;-64
2021/12/25 11:49:54;;;;;;;5.68;3.42;;;;;;;;;;6390098;27;20480;-64
2021/12/25 11:53:05;;;;;;;6.15;3.40;;;;;;;;;;6375243;27;20050;-63
2021/12/25 11:59:23;;;;;;;5.70;2.88;;;;;;;;;;6392913;27;20057;-65
2021/12/25 12:02:37;;;;;;;4.05;3.17;;;;;;;;;;6391247;27;20042;-64
2021/12/25 12:05:48;;;;;;;8.55;4.13;;;;;;;;;;6390219;27;20061;-64
2021/12/25 12:09:00;;;;;;;13.73;8.38;;;;;;;;;;6372920;27;20039;-64
2021/12/25 12:12:23;;;;;;;18.02;11.57;;;;;;;;;;6391854;27;20050;-63
2021/12/25 12:15:46;;;;;;;22.77;14.63;;;;;;;;;;6393062;27;20046;-64
2021/12/25 12:19:32;;;;;;;24.23;15.88;;;;;;;;;;6395568;27;20049;-64
2021/12/25 12:22:57;;;;;;;22.30;16.58;;;;;;;;;;6376978;27;20051;-64
2021/12/25 12:26:05;;;;;;;23.27;15.50;;;;;;;;;;6396406;27;20419;-64
2021/12/25 12:29:08;;;;;;;23.20;15.15;;;;;;;;;;6377540;27;20046;-64
2021/12/25 12:32:34;;;;;;;24.40;16.08;;;;;;;;;;6395826;27;20074;-65
2021/12/25 12:35:38;;;;;;;24.25;15.15;;;;;;;;;;6377703;27;20051;-64
2021/12/25 12:38:44;;;;;;;22.10;15.10;;;;;;;;;;6395451;27;20143;-65
2021/12/25 12:41:51;;;;;;;27.38;14.65;;;;;;;;;;6376832;27;20477;-64
2021/12/25 12:45:07;;;;;;;22.52;13.63;;;;;;;;;;6395728;27;20049;-65
2021/12/25 12:48:18;;;;;;;20.77;13.90;;;;;;;;;;6377499;27;20043;-65
2021/12/25 12:51:24;;;;;;;20.95;13.45;;;;;;;;;;6395457;27;20423;-65
2021/12/25 12:54:42;;;;;;;20.20;13.07;;;;;;;;;;6376541;27;20039;-65
2021/12/25 12:57:48;;;;;;;18.80;12.93;;;;;;;;;;6395408;27;20050;-65
2021/12/25 13:00:53;;;;;;;18.42;12.88;;;;;;;;;;6395680;27;20062;-64
2021/12/25 13:03:56;;;;;;;;;;;;;;;;;;6376862;27;20051;-65
2021/12/25 13:07:09;;;;;;;20.70;13.98;;;;;;;;;;6376443;27;19926;-65
2021/12/25 13:10:21;;;;;;;22.33;15.13;;;;;;;;;;6395595;27;20039;-64
2021/12/25 13:13:25;;;;;;;24.65;16.73;;;;;;;;;;6395199;27;20084;-64
2021/12/25 13:16:33;;;;;;;22.85;15.82;;;;;;;;;;6394704;27;20039;-64
2021/12/25 13:19:45;;;;;;;29.55;17.40;;;;;;;;;;6376412;27;20053;-64
2021/12/25 13:22:57;;;;;;;25.30;16.85;;;;;;;;;;6395645;27;20041;-65
2021/12/25 13:26:03;;;;;;;29.35;17.45;;;;;;;;;;6394671;27;20104;-64
2021/12/25 13:29:11;;;;;;;26.08;17.48;;;;;;;;;;6375932;27;20506;-64
2021/12/25 13:32:14;;;;;;;;;;;;;;;;;;6395346;27;20050;-64
2021/12/25 13:35:17;;;;;;;24.33;16.77;;;;;;;;;;6394872;27;20355;-64
2021/12/25 13:38:20;;;;;;;27.25;17.35;;;;;;;;;;6375716;27;20054;-64
2021/12/25 13:41:29;;;;;;;29.40;18.13;;;;;;;;;;6394577;27;20126;-65
2021/12/25 13:44:33;;;;;;;28.30;17.58;;;;;;;;;;6376492;27;20108;-65
2021/12/25 13:47:38;;;;;;;29.83;18.67;;;;;;;;;;6375885;27;20039;-65
2021/12/25 13:50:41;;;;;;;29.52;18.08;;;;;;;;;;6375774;27;20076;-65
2021/12/25 13:53:46;;;;;;;29.80;20.10;;;;;;;;;;6394842;27;20167;-65
2021/12/25 13:56:52;;;;;;;28.50;18.75;;;;;;;;;;6376142;27;20053;-64
2021/12/25 14:00:00;;;;;;;23.10;17.48;;;;;;;;;;6394129;27;20047;-64
2021/12/25 14:03:14;;;;;;;27.73;18.33;;;;;;;;;;6394625;27;20042;-64
2021/12/25 14:06:17;;;;;;;31.98;20.02;;;;;;;;;;6394562;27;20045;-64
2021/12/25 14:09:20;;;;;;;29.50;19.52;;;;;;;;;;6375909;27;20050;-64
2021/12/25 14:12:25;;;;;;;30.83;19.55;;;;;;;;;;6375391;27;20050;-64
2021/12/25 14:15:28;;;;;;;;;;;;;;;;;;6394884;27;20047;-64
2021/12/25 14:18:32;;;;;;;30.45;18.92;;;;;;;;;;6394449;27;20329;-66
2021/12/25 14:21:36;;;;;;;30.77;18.73;;;;;;;;;;6393894;27;20039;-63
2021/12/25 14:24:42;;;;;;;28.33;18.50;;;;;;;;;;6394282;27;20602;-64
2021/12/25 14:27:47;;;;;;;32.80;20.20;;;;;;;;;;6375895;27;20435;-64
2021/12/25 14:30:58;;;;;;;26.90;18.85;;;;;;;;;;6393913;27;20047;-64
2021/12/25 14:34:03;;;;;;;31.60;19.35;;;;;;;;;;6393736;27;20458;-64
2021/12/25 14:37:06;;;;;;;30.67;19.73;;;;;;;;;;6375489;27;20416;-64
2021/12/25 14:40:11;;;;;;;27.10;18.65;;;;;;;;;;6375507;27;20083;-63
2021/12/25 14:43:17;;;;;;;31.33;20.48;;;;;;;;;;6393763;27;20490;-64
2021/12/25 14:46:21;;;;;;;33.55;20.23;;;;;;;;;;6397302;27;20087;-63
2021/12/25 14:49:24;;;;;;;28.98;19.85;;;;;;;;;;6398932;27;20111;-63
2021/12/25 14:52:27;;;;;;;31.73;20.33;;;;;;;;;;6379750;27;20470;-64
2021/12/25 14:55:33;;;;;;;31.10;19.50;;;;;;;;;;6379601;27;20547;-63
2021/12/25 14:58:37;;;;;;;32.88;21.05;;;;;;;;;;6380114;27;20043;-70
2021/12/25 15:01:41;;;;;;;29.27;19.98;;;;;;;;;;6379912;27;20412;-63
2021/12/25 15:04:47;;;;;;;30.75;20.40;;;;;;;;;;6379126;27;20507;-65
2021/12/25 15:07:50;;;;;;;28.95;17.88;;;;;;;;;;6397998;27;20520;-63
2021/12/25 15:10:54;;;;;;;29.48;18.08;;;;;;;;;;6398331;27;20110;-63
2021/12/25 15:13:59;;;;;;;28.27;17.65;;;;;;;;;;6397564;27;20095;-65
2021/12/25 15:17:03;;;;;;;28.80;18.75;;;;;;;;;;6397568;27;20046;-64
2021/12/25 15:20:08;;;;;;;29.80;17.90;;;;;;;;;;6398031;27;20415;-64
2021/12/25 15:23:16;;;;;;;31.52;19.48;;;;;;;;;;6397796;27;20039;-63
2021/12/25 15:26:20;;;;;;;34.53;19.90;;;;;;;;;;6397330;27;20066;-63
2021/12/25 15:29:32;;;;;;;33.75;20.60;;;;;;;;;;6397559;27;20046;-65
2021/12/25 15:32:37;;;;;;;34.00;21.45;;;;;;;;;;6379215;27;20042;-64
2021/12/25 15:35:42;;;;;;;35.25;21.77;;;;;;;;;;6397275;27;20095;-63
2021/12/25 15:38:45;;;;;;;36.22;21.95;;;;;;;;;;6378199;27;20054;-65
2021/12/25 15:41:49;;;;;;;39.35;23.98;;;;;;;;;;6397457;27;20038;-64
2021/12/25 15:44:54;;;;;;;37.78;22.38;;;;;;;;;;6378845;27;20046;-65
2021/12/25 15:47:58;;;;;;;42.17;23.02;;;;;;;;;;6396852;27;20433;-63
2021/12/25 15:51:02;;;;;;;36.88;23.15;;;;;;;;;;6378495;27;20050;-65
2021/12/25 15:54:05;;;;;;;39.67;23.83;;;;;;;;;;6378720;27;20085;-66
2021/12/25 15:57:09;;;;;;;38.60;24.55;;;;;;;;;;6378126;27;20042;-65
2021/12/25 16:00:15;;;;;;;42.38;24.33;;;;;;;;;;6396477;27;20099;-65
2021/12/25 16:03:18;;;;;;;43.38;25.40;;;;;;;;;;6379218;27;20039;-65
2021/12/25 16:06:23;;;;;;;45.60;24.75;;;;;;;;;;6396457;27;20039;-65
2021/12/25 16:09:29;;;;;;;42.20;24.50;;;;;;;;;;6396190;27;20053;-65
2021/12/25 16:12:32;;;;;;;45.22;25.75;;;;;;;;;;6396457;27;20030;-65
2021/12/25 16:15:38;;;;;;;42.92;24.25;;;;;;;;;;6396729;27;20484;-65
2021/12/25 16:18:50;;;;;;;47.92;25.75;;;;;;;;;;6396148;27;20480;-64
2021/12/25 16:21:55;;;;;;;46.25;26.27;;;;;;;;;;6377542;27;20050;-65
2021/12/25 16:24:58;;;;;;;48.25;24.27;;;;;;;;;;6396441;27;20046;-65
2021/12/25 16:28:01;;;;;;;43.72;24.48;;;;;;;;;;6377539;27;20038;-65
2021/12/25 16:31:08;;;;;;;39.28;23.35;;;;;;;;;;6377233;27;20042;-65
2021/12/25 16:34:12;;;;;;;45.78;24.08;;;;;;;;;;6395811;27;20059;-63
2021/12/25 16:37:15;;;;;;;45.97;25.25;;;;;;;;;;6377403;27;20051;-63
2021/12/25 16:40:18;;;;;;;44.42;24.38;;;;;;;;;;6395427;27;20082;-64
2021/12/25 16:43:23;;;;;;;49.22;24.88;;;;;;;;;;6376932;27;20042;-64
2021/12/25 16:46:28;;;;;;;42.22;23.45;;;;;;;;;;6396292;27;20046;-64
2021/12/25 16:49:34;;;;;;;37.92;22.00;;;;;;;;;;6395624;27;20046;-63
2021/12/25 16:52:37;;;;;;;36.97;19.25;;;;;;;;;;6376663;27;20514;-64
2021/12/25 16:55:41;;;;;;;33.20;18.50;;;;;;;;;;6395536;27;20054;-64
2021/12/25 16:58:44;;;;;;;33.53;19.20;;;;;;;;;;6395561;27;20031;-63
2021/12/25 17:01:48;;;;;;;30.73;17.98;;;;;;;;;;6376268;27;20047;-65
2021/12/25 17:04:54;;;;;;;33.85;17.50;;;;;;;;;;6376418;27;20053;-65
2021/12/25 17:07:57;;;;;;;31.85;15.70;;;;;;;;;;6376504;27;20046;-65
2021/12/25 17:11:00;;;;;;;29.88;15.75;;;;;;;;;;6376490;27;20054;-65
2021/12/25 17:14:04;;;;;;;32.17;16.30;;;;;;;;;;6394691;27;20499;-65
2021/12/25 17:17:08;;;;;;;23.00;13.02;;;;;;;;;;6395229;27;20061;-64
2021/12/25 17:20:12;;;;;;;25.33;14.15;;;;;;;;;;6376690;27;20047;-64
2021/12/25 17:23:15;;;;;;;22.65;13.07;;;;;;;;;;6394568;27;20045;-65
2021/12/25 17:26:18;;;;;;;25.65;13.82;;;;;;;;;;6376346;27;20042;-65
2021/12/25 17:29:20;;;;;;;25.38;14.05;;;;;;;;;;6395173;27;20557;-64
2021/12/25 17:32:25;;;;;;;27.80;14.30;;;;;;;;;;6394404;27;20050;-65
2021/12/25 17:35:28;;;;;;;23.45;13.35;;;;;;;;;;6376186;27;20047;-65
2021/12/25 17:38:32;;;;;;;26.23;13.48;;;;;;;;;;6376347;27;20112;-65
2021/12/25 17:41:46;;;;;;;25.30;12.43;;;;;;;;;;6375089;27;20599;-65
2021/12/25 17:44:53;;;;;;;23.33;12.55;;;;;;;;;;6374583;27;20043;-65
2021/12/25 17:47:57;;;;;;;21.92;12.02;;;;;;;;;;6374683;27;20183;-65
2021/12/25 17:51:01;;;;;;;21.20;11.88;;;;;;;;;;6374519;27;20053;-65
2021/12/25 17:54:04;;;;;;;23.65;12.13;;;;;;;;;;6393037;27;20043;-65
2021/12/25 17:57:09;;;;;;;22.27;12.60;;;;;;;;;;6374420;27;20062;-65
2021/12/25 18:00:13;;;;;;;21.97;13.13;;;;;;;;;;6375435;27;20142;-65
2021/12/25 18:03:21;;;;;;;21.85;11.65;;;;;;;;;;6392934;27;20648;-65
2021/12/25 18:06:25;;;;;;;24.85;12.23;;;;;;;;;;6374397;27;20352;-65
2021/12/25 18:09:30;;;;;;;20.23;11.02;;;;;;;;;;6374642;27;20405;-65
2021/12/25 18:12:33;;;;;;;21.55;11.52;;;;;;;;;;6392737;27;20043;-65
2021/12/25 18:15:36;;;;;;;24.67;12.88;;;;;;;;;;6392758;27;20435;-65
2021/12/25 18:18:40;;;;;;;21.35;11.10;;;;;;;;;;6374232;27;20140;-64
2021/12/25 18:21:43;;;;;;;20.67;11.77;;;;;;;;;;6397304;27;20091;-65
2021/12/25 18:24:49;;;;;;;24.05;13.32;;;;;;;;;;6379335;27;20053;-65
2021/12/25 18:27:52;;;;;;;23.85;12.25;;;;;;;;;;6397577;27;20050;-65
2021/12/25 18:30:56;;;;;;;22.40;12.43;;;;;;;;;;6397773;27;20035;-65
2021/12/25 18:34:00;;;;;;;22.38;11.40;;;;;;;;;;6379006;27;20046;-64
2021/12/25 18:37:03;;;;;;;23.88;12.88;;;;;;;;;;6397336;27;20043;-64
2021/12/25 18:40:09;;;;;;;23.88;13.07;;;;;;;;;;6370102;27;20416;-65
2021/12/25 18:43:15;;;;;;;24.30;14.60;;;;;;;;;;6370497;27;20401;-65
2021/12/25 18:46:20;;;;;;;25.00;13.50;;;;;;;;;;6370245;27;20129;-64
2021/12/25 18:49:29;;;;;;;25.05;13.93;;;;;;;;;;6371935;27;20047;-65
2021/12/25 18:52:32;;;;;;;27.70;14.20;;;;;;;;;;6371534;27;20047;-65
2021/12/25 18:55:35;;;;;;;28.42;16.35;;;;;;;;;;6371293;27;20536;-65
2021/12/25 18:58:40;;;;;;;;;;;;;;;;;;6371804;27;20051;-65
2021/12/25 19:01:43;;;;;;;25.95;13.73;;;;;;;;;;6371088;27;19919;-65
2021/12/25 19:04:50;;;;;;;28.88;14.95;;;;;;;;;;6369737;27;20047;-64
2021/12/25 19:07:53;;;;;;;31.98;16.92;;;;;;;;;;6371011;27;20039;-64
2021/12/25 19:10:56;;;;;;;33.92;17.63;;;;;;;;;;6369635;27;20073;-63
2021/12/25 19:13:59;;;;;;;33.65;17.67;;;;;;;;;;6369740;27;20051;-65
2021/12/25 19:17:03;;;;;;;35.25;19.08;;;;;;;;;;6369517;27;20088;-64
2021/12/25 19:20:12;;;;;;;30.80;16.85;;;;;;;;;;6371207;27;20044;-64
2021/12/25 19:23:16;;;;;;;30.33;15.48;;;;;;;;;;6369684;27;20058;-64